SPNTA EPPO-EPBC
Flight info
| Callsign | SPNTA |
|---|---|
| Flight time | 0h 49m |
| Altitude | 17000 |
| Route | OBOKU P150 BIMPA P851 MULZA/VFR DCT EPBCF DCT |
| Aircraft | C208/L-SDFGR/C |
Departure
| Time | 2026-05-05 08:22 |
|---|---|
| Airport | Poznań-Ławica Airport (EPPO) |
Arrival
| Time | 2026-05-05 09:12 |
|---|---|
| Airport | Warsaw Babice Airport (EPBC) |
| Time | Latitude | Longitude | Altitude | Speed | Heading |
|---|---|---|---|---|---|
| 2026-05-05 08:07 | 52.41515 | 16.83747 | 287 ft | 0 kts | 97° |
| 2026-05-05 08:07 | 52.41515 | 16.83746 | 287 ft | 0 kts | 97° |
| 2026-05-05 08:11 | 52.41515 | 16.83745 | 287 ft | 0 kts | 97° |
| 2026-05-05 08:15 | 52.41515 | 16.83744 | 287 ft | 0 kts | 97° |
| 2026-05-05 08:17 | 52.41515 | 16.83748 | 287 ft | 3 kts | 96° |
| 2026-05-05 08:17 | 52.41540 | 16.83784 | 287 ft | 6 kts | 4° |
| 2026-05-05 08:17 | 52.41564 | 16.83736 | 287 ft | 7 kts | 270° |
| 2026-05-05 08:17 | 52.41564 | 16.83684 | 287 ft | 3 kts | 270° |
| 2026-05-05 08:18 | 52.41567 | 16.83603 | 287 ft | 14 kts | 275° |
| 2026-05-05 08:18 | 52.41587 | 16.83400 | 287 ft | 19 kts | 282° |
| 2026-05-05 08:18 | 52.41617 | 16.83192 | 287 ft | 20 kts | 284° |
| 2026-05-05 08:18 | 52.41645 | 16.82997 | 287 ft | 16 kts | 282° |
| 2026-05-05 08:19 | 52.41669 | 16.82850 | 287 ft | 8 kts | 301° |
| 2026-05-05 08:19 | 52.41692 | 16.82820 | 287 ft | 5 kts | 344° |
| 2026-05-05 08:19 | 52.41717 | 16.82820 | 287 ft | 1 kts | 17° |
| 2026-05-05 08:19 | 52.41773 | 16.82875 | 287 ft | 16 kts | 23° |
| 2026-05-05 08:20 | 52.41865 | 16.82924 | 287 ft | 18 kts | 19° |
| 2026-05-05 08:20 | 52.41966 | 16.82980 | 286 ft | 13 kts | 13° |
| 2026-05-05 08:20 | 52.42047 | 16.82925 | 285 ft | 16 kts | 289° |
| 2026-05-05 08:20 | 52.42087 | 16.82724 | 286 ft | 18 kts | 297° |
| 2026-05-05 08:21 | 52.42098 | 16.82653 | 286 ft | 5 kts | 104° |
| 2026-05-05 08:21 | 52.42096 | 16.82665 | 286 ft | 0 kts | 106° |
| 2026-05-05 08:21 | 52.42094 | 16.82674 | 286 ft | 6 kts | 105° |
| 2026-05-05 08:22 | 52.42028 | 16.83019 | 285 ft | 61 kts | 108° |
| 2026-05-05 08:22 | 52.41867 | 16.83847 | 451 ft | 83 kts | 107° |
| 2026-05-05 08:22 | 52.41666 | 16.84791 | 722 ft | 95 kts | 103° |
| 2026-05-05 08:22 | 52.41483 | 16.85849 | 993 ft | 100 kts | 103° |
| 2026-05-05 08:23 | 52.41251 | 16.87063 | 1166 ft | 118 kts | 107° |
| 2026-05-05 08:23 | 52.41006 | 16.88328 | 1540 ft | 115 kts | 108° |
| 2026-05-05 08:23 | 52.40760 | 16.89603 | 1920 ft | 122 kts | 109° |
| 2026-05-05 08:23 | 52.40496 | 16.90924 | 2331 ft | 121 kts | 108° |
| 2026-05-05 08:24 | 52.40270 | 16.92275 | 2701 ft | 124 kts | 109° |
| 2026-05-05 08:24 | 52.39975 | 16.93668 | 3027 ft | 133 kts | 112° |
| 2026-05-05 08:24 | 52.39692 | 16.95092 | 3335 ft | 134 kts | 110° |
| 2026-05-05 08:24 | 52.39406 | 16.96582 | 3639 ft | 138 kts | 111° |
| 2026-05-05 08:25 | 52.39119 | 16.98075 | 3942 ft | 136 kts | 111° |
| 2026-05-05 08:25 | 52.38821 | 16.99564 | 4248 ft | 139 kts | 112° |
| 2026-05-05 08:25 | 52.38535 | 17.01083 | 4554 ft | 141 kts | 110° |
| 2026-05-05 08:25 | 52.38231 | 17.02614 | 4859 ft | 142 kts | 112° |
| 2026-05-05 08:26 | 52.37930 | 17.04154 | 5155 ft | 140 kts | 111° |
| 2026-05-05 08:26 | 52.37638 | 17.05653 | 5472 ft | 136 kts | 111° |
| 2026-05-05 08:26 | 52.37352 | 17.07115 | 5794 ft | 138 kts | 111° |
| 2026-05-05 08:26 | 52.37059 | 17.08608 | 6105 ft | 137 kts | 112° |
| 2026-05-05 08:27 | 52.36775 | 17.10080 | 6431 ft | 134 kts | 112° |
| 2026-05-05 08:27 | 52.36486 | 17.11534 | 6731 ft | 133 kts | 112° |
| 2026-05-05 08:27 | 52.36204 | 17.12970 | 7044 ft | 132 kts | 112° |
| 2026-05-05 08:27 | 52.35920 | 17.14409 | 7361 ft | 134 kts | 114° |
| 2026-05-05 08:28 | 52.35637 | 17.15843 | 7676 ft | 131 kts | 114° |
| 2026-05-05 08:28 | 52.35357 | 17.17257 | 8002 ft | 131 kts | 114° |
| 2026-05-05 08:28 | 52.35074 | 17.18675 | 8326 ft | 131 kts | 115° |
| 2026-05-05 08:28 | 52.34785 | 17.20111 | 8608 ft | 135 kts | 115° |
| 2026-05-05 08:29 | 52.34489 | 17.21586 | 8895 ft | 138 kts | 115° |
| 2026-05-05 08:29 | 52.34187 | 17.23098 | 9185 ft | 141 kts | 115° |
| 2026-05-05 08:29 | 52.33882 | 17.24627 | 9479 ft | 142 kts | 116° |
| 2026-05-05 08:30 | 52.33261 | 17.27725 | 10032 ft | 144 kts | 116° |
| 2026-05-05 08:30 | 52.32951 | 17.29282 | 10300 ft | 144 kts | 115° |
| 2026-05-05 08:30 | 52.32636 | 17.30851 | 10562 ft | 146 kts | 116° |
| 2026-05-05 08:30 | 52.32316 | 17.32437 | 10830 ft | 147 kts | 115° |
| 2026-05-05 08:31 | 52.31997 | 17.34027 | 11101 ft | 148 kts | 116° |
| 2026-05-05 08:31 | 52.31672 | 17.35627 | 11374 ft | 149 kts | 115° |
| 2026-05-05 08:31 | 52.31351 | 17.37241 | 11653 ft | 150 kts | 116° |
| 2026-05-05 08:31 | 52.31029 | 17.38836 | 11928 ft | 150 kts | 116° |
| 2026-05-05 08:32 | 52.30699 | 17.40470 | 12174 ft | 152 kts | 115° |
| 2026-05-05 08:32 | 52.30364 | 17.42140 | 12432 ft | 153 kts | 116° |
| 2026-05-05 08:32 | 52.30029 | 17.43784 | 12690 ft | 156 kts | 115° |
| 2026-05-05 08:32 | 52.29689 | 17.45474 | 12955 ft | 157 kts | 115° |
| 2026-05-05 08:33 | 52.29344 | 17.47176 | 13217 ft | 158 kts | 115° |
| 2026-05-05 08:33 | 52.28999 | 17.48883 | 13487 ft | 159 kts | 115° |
| 2026-05-05 08:33 | 52.28652 | 17.50600 | 13744 ft | 159 kts | 115° |
| 2026-05-05 08:33 | 52.28301 | 17.52326 | 13977 ft | 160 kts | 115° |
| 2026-05-05 08:34 | 52.27948 | 17.54062 | 14214 ft | 162 kts | 115° |
| 2026-05-05 08:34 | 52.27591 | 17.55820 | 14433 ft | 164 kts | 115° |
| 2026-05-05 08:34 | 52.27228 | 17.57586 | 14660 ft | 165 kts | 115° |
| 2026-05-05 08:34 | 52.26867 | 17.59379 | 14862 ft | 165 kts | 115° |
| 2026-05-05 08:35 | 52.26513 | 17.61129 | 15082 ft | 164 kts | 115° |
| 2026-05-05 08:35 | 52.26152 | 17.62900 | 15304 ft | 165 kts | 115° |
| 2026-05-05 08:35 | 52.25789 | 17.64674 | 15524 ft | 164 kts | 115° |
| 2026-05-05 08:35 | 52.25426 | 17.66446 | 15744 ft | 164 kts | 115° |
| 2026-05-05 08:36 | 52.25063 | 17.68223 | 15967 ft | 164 kts | 116° |
| 2026-05-05 08:36 | 52.24700 | 17.69998 | 16175 ft | 166 kts | 115° |
| 2026-05-05 08:36 | 52.24328 | 17.71792 | 16381 ft | 167 kts | 116° |
| 2026-05-05 08:36 | 52.23962 | 17.73592 | 16581 ft | 168 kts | 115° |
| 2026-05-05 08:37 | 52.23595 | 17.75389 | 16786 ft | 169 kts | 115° |
| 2026-05-05 08:37 | 52.23246 | 17.77275 | 16847 ft | 183 kts | 104° |
| 2026-05-05 08:37 | 52.23350 | 17.79429 | 16865 ft | 197 kts | 82° |
| 2026-05-05 08:37 | 52.23576 | 17.81675 | 16863 ft | 204 kts | 85° |
| 2026-05-05 08:38 | 52.23779 | 17.84003 | 16861 ft | 209 kts | 85° |
| 2026-05-05 08:38 | 52.23993 | 17.86378 | 16858 ft | 213 kts | 84° |
| 2026-05-05 08:38 | 52.24216 | 17.88784 | 16858 ft | 215 kts | 84° |
| 2026-05-05 08:38 | 52.24437 | 17.91209 | 16856 ft | 217 kts | 84° |
| 2026-05-05 08:39 | 52.24657 | 17.93652 | 16857 ft | 218 kts | 84° |
| 2026-05-05 08:39 | 52.24880 | 17.96111 | 16862 ft | 220 kts | 84° |
| 2026-05-05 08:39 | 52.25103 | 17.98583 | 16863 ft | 220 kts | 84° |
| 2026-05-05 08:39 | 52.25324 | 18.01052 | 16858 ft | 220 kts | 84° |
| 2026-05-05 08:40 | 52.25547 | 18.03529 | 16859 ft | 220 kts | 85° |
| 2026-05-05 08:40 | 52.25768 | 18.06007 | 16860 ft | 220 kts | 84° |
| 2026-05-05 08:40 | 52.25988 | 18.08447 | 16859 ft | 220 kts | 84° |
| 2026-05-05 08:40 | 52.26210 | 18.10949 | 16859 ft | 220 kts | 84° |
| 2026-05-05 08:41 | 52.26425 | 18.13393 | 16856 ft | 221 kts | 84° |
| 2026-05-05 08:41 | 52.26648 | 18.15879 | 16858 ft | 221 kts | 84° |
| 2026-05-05 08:41 | 52.26868 | 18.18363 | 16858 ft | 221 kts | 84° |
| 2026-05-05 08:41 | 52.27086 | 18.20846 | 16858 ft | 221 kts | 84° |
| 2026-05-05 08:42 | 52.27305 | 18.23333 | 16858 ft | 221 kts | 84° |
| 2026-05-05 08:42 | 52.27523 | 18.25820 | 16854 ft | 221 kts | 84° |
| 2026-05-05 08:42 | 52.27741 | 18.28306 | 16856 ft | 221 kts | 84° |
| 2026-05-05 08:42 | 52.27957 | 18.30791 | 16853 ft | 221 kts | 84° |
| 2026-05-05 08:43 | 52.28174 | 18.33265 | 16857 ft | 221 kts | 84° |
| 2026-05-05 08:43 | 52.28390 | 18.35754 | 16852 ft | 221 kts | 84° |
| 2026-05-05 08:43 | 52.28606 | 18.38247 | 16852 ft | 221 kts | 84° |
| 2026-05-05 08:43 | 52.28821 | 18.40740 | 16848 ft | 221 kts | 84° |
| 2026-05-05 08:44 | 52.29035 | 18.43228 | 16845 ft | 221 kts | 84° |
| 2026-05-05 08:44 | 52.29249 | 18.45714 | 16846 ft | 221 kts | 84° |
| 2026-05-05 08:44 | 52.29463 | 18.48200 | 16848 ft | 221 kts | 84° |
| 2026-05-05 08:44 | 52.29677 | 18.50693 | 16849 ft | 222 kts | 85° |
| 2026-05-05 08:45 | 52.29889 | 18.53187 | 16850 ft | 222 kts | 84° |
| 2026-05-05 08:45 | 52.30100 | 18.55656 | 16849 ft | 222 kts | 84° |
| 2026-05-05 08:45 | 52.30315 | 18.58184 | 16848 ft | 221 kts | 84° |
| 2026-05-05 08:45 | 52.30521 | 18.60644 | 16850 ft | 221 kts | 84° |
| 2026-05-05 08:46 | 52.30732 | 18.63134 | 16847 ft | 221 kts | 84° |
| 2026-05-05 08:46 | 52.30944 | 18.65627 | 16850 ft | 222 kts | 85° |
| 2026-05-05 08:46 | 52.31154 | 18.68138 | 16848 ft | 222 kts | 84° |
| 2026-05-05 08:46 | 52.31363 | 18.70638 | 16849 ft | 222 kts | 85° |
| 2026-05-05 08:47 | 52.31572 | 18.73135 | 16847 ft | 222 kts | 84° |
| 2026-05-05 08:47 | 52.31781 | 18.75632 | 16848 ft | 221 kts | 85° |
| 2026-05-05 08:47 | 52.31988 | 18.78127 | 16845 ft | 221 kts | 85° |
| 2026-05-05 08:47 | 52.32193 | 18.80621 | 16847 ft | 221 kts | 85° |
| 2026-05-05 08:48 | 52.32400 | 18.83118 | 16847 ft | 222 kts | 85° |
| 2026-05-05 08:48 | 52.32608 | 18.85614 | 16848 ft | 222 kts | 85° |
| 2026-05-05 08:48 | 52.32813 | 18.88111 | 16848 ft | 222 kts | 85° |
| 2026-05-05 08:48 | 52.33016 | 18.90610 | 16846 ft | 222 kts | 85° |
| 2026-05-05 08:49 | 52.33221 | 18.93107 | 16849 ft | 222 kts | 85° |
| 2026-05-05 08:49 | 52.33397 | 18.95618 | 16849 ft | 222 kts | 89° |
| 2026-05-05 08:49 | 52.33516 | 18.98096 | 16848 ft | 222 kts | 88° |
| 2026-05-05 08:49 | 52.33659 | 19.00617 | 16845 ft | 222 kts | 87° |
| 2026-05-05 08:50 | 52.33798 | 19.03130 | 16844 ft | 222 kts | 88° |
| 2026-05-05 08:50 | 52.33930 | 19.05647 | 16847 ft | 222 kts | 88° |
| 2026-05-05 08:50 | 52.34061 | 19.08156 | 16847 ft | 222 kts | 88° |
| 2026-05-05 08:50 | 52.34192 | 19.10679 | 16846 ft | 222 kts | 88° |
| 2026-05-05 08:51 | 52.34322 | 19.13197 | 16846 ft | 222 kts | 88° |
| 2026-05-05 08:51 | 52.34408 | 19.14867 | 16843 ft | 222 kts | 88° |
| 2026-05-05 08:51 | 52.34539 | 19.17380 | 16842 ft | 222 kts | 88° |
| 2026-05-05 08:51 | 52.34668 | 19.19886 | 16841 ft | 221 kts | 88° |
| 2026-05-05 08:52 | 52.34796 | 19.22391 | 16843 ft | 221 kts | 88° |
| 2026-05-05 08:52 | 52.34924 | 19.24896 | 16849 ft | 221 kts | 88° |
| 2026-05-05 08:52 | 52.35048 | 19.27410 | 16849 ft | 222 kts | 88° |
| 2026-05-05 08:52 | 52.35174 | 19.29927 | 16844 ft | 222 kts | 88° |
| 2026-05-05 08:53 | 52.35304 | 19.32519 | 16545 ft | 235 kts | 88° |
| 2026-05-05 08:53 | 52.35436 | 19.35216 | 16250 ft | 238 kts | 88° |
| 2026-05-05 08:53 | 52.35570 | 19.37915 | 15950 ft | 237 kts | 89° |
| 2026-05-05 08:53 | 52.35703 | 19.40593 | 15652 ft | 236 kts | 88° |
| 2026-05-05 08:54 | 52.35835 | 19.43257 | 15352 ft | 234 kts | 89° |
| 2026-05-05 08:54 | 52.35963 | 19.45907 | 15057 ft | 234 kts | 89° |
| 2026-05-05 08:54 | 52.36089 | 19.48537 | 14770 ft | 234 kts | 89° |
| 2026-05-05 08:54 | 52.36218 | 19.51208 | 14477 ft | 235 kts | 89° |
| 2026-05-05 08:55 | 52.36347 | 19.53860 | 14194 ft | 233 kts | 89° |
| 2026-05-05 08:55 | 52.36472 | 19.56499 | 13907 ft | 232 kts | 89° |
| 2026-05-05 08:55 | 52.36596 | 19.59128 | 13616 ft | 231 kts | 89° |
| 2026-05-05 08:55 | 52.36719 | 19.61741 | 13296 ft | 230 kts | 89° |
| 2026-05-05 08:56 | 52.36843 | 19.64345 | 12982 ft | 229 kts | 89° |
| 2026-05-05 08:56 | 52.36964 | 19.66933 | 12670 ft | 227 kts | 89° |
| 2026-05-05 08:56 | 52.37086 | 19.69506 | 12361 ft | 225 kts | 89° |
| 2026-05-05 08:56 | 52.37203 | 19.72055 | 12052 ft | 223 kts | 89° |
| 2026-05-05 08:57 | 52.37319 | 19.74578 | 11746 ft | 221 kts | 89° |
| 2026-05-05 08:57 | 52.37423 | 19.77038 | 11488 ft | 217 kts | 92° |
| 2026-05-05 08:57 | 52.37208 | 19.79447 | 11292 ft | 210 kts | 109° |
| 2026-05-05 08:57 | 52.36896 | 19.81745 | 11071 ft | 210 kts | 107° |
| 2026-05-05 08:58 | 52.36611 | 19.84082 | 10852 ft | 210 kts | 106° |
| 2026-05-05 08:58 | 52.36319 | 19.86412 | 10632 ft | 209 kts | 107° |
| 2026-05-05 08:58 | 52.36022 | 19.88745 | 10420 ft | 210 kts | 107° |
| 2026-05-05 08:58 | 52.35725 | 19.91068 | 10196 ft | 207 kts | 107° |
| 2026-05-05 08:59 | 52.35432 | 19.93367 | 9976 ft | 206 kts | 107° |
| 2026-05-05 08:59 | 52.35139 | 19.95646 | 9761 ft | 204 kts | 107° |
| 2026-05-05 08:59 | 52.34850 | 19.97911 | 9527 ft | 203 kts | 106° |
| 2026-05-05 08:59 | 52.34560 | 20.00167 | 9287 ft | 202 kts | 107° |
| 2026-05-05 09:00 | 52.34270 | 20.02403 | 9052 ft | 200 kts | 106° |
| 2026-05-05 09:00 | 52.33986 | 20.04628 | 8826 ft | 199 kts | 106° |
| 2026-05-05 09:00 | 52.33698 | 20.06838 | 8584 ft | 198 kts | 107° |
| 2026-05-05 09:00 | 52.33416 | 20.09036 | 8359 ft | 197 kts | 106° |
| 2026-05-05 09:01 | 52.33133 | 20.11228 | 8135 ft | 197 kts | 106° |
| 2026-05-05 09:01 | 52.32852 | 20.13407 | 7905 ft | 196 kts | 106° |
| 2026-05-05 09:01 | 52.32569 | 20.15577 | 7676 ft | 194 kts | 106° |
| 2026-05-05 09:01 | 52.32288 | 20.17723 | 7454 ft | 192 kts | 106° |
| 2026-05-05 09:02 | 52.32012 | 20.19849 | 7223 ft | 190 kts | 106° |
| 2026-05-05 09:02 | 52.31737 | 20.21959 | 7008 ft | 189 kts | 106° |
| 2026-05-05 09:02 | 52.31464 | 20.24039 | 6800 ft | 188 kts | 105° |
| 2026-05-05 09:02 | 52.31192 | 20.26125 | 6600 ft | 187 kts | 105° |
| 2026-05-05 09:03 | 52.30930 | 20.28207 | 6406 ft | 187 kts | 105° |
| 2026-05-05 09:03 | 52.30651 | 20.30283 | 6208 ft | 186 kts | 105° |
| 2026-05-05 09:03 | 52.30371 | 20.32357 | 6006 ft | 186 kts | 105° |
| 2026-05-05 09:03 | 52.30103 | 20.34434 | 5805 ft | 187 kts | 105° |
| 2026-05-05 09:04 | 52.29838 | 20.36495 | 5597 ft | 184 kts | 105° |
| 2026-05-05 09:04 | 52.29563 | 20.38520 | 5403 ft | 184 kts | 104° |
| 2026-05-05 09:04 | 52.29292 | 20.40557 | 5205 ft | 184 kts | 105° |
| 2026-05-05 09:04 | 52.29018 | 20.42599 | 5006 ft | 184 kts | 105° |
| 2026-05-05 09:05 | 52.28756 | 20.44644 | 4797 ft | 181 kts | 105° |
| 2026-05-05 09:05 | 52.28491 | 20.46629 | 4608 ft | 178 kts | 104° |
| 2026-05-05 09:05 | 52.28236 | 20.48598 | 4394 ft | 176 kts | 104° |
| 2026-05-05 09:05 | 52.27970 | 20.50537 | 4186 ft | 175 kts | 105° |
| 2026-05-05 09:06 | 52.27716 | 20.52415 | 3989 ft | 170 kts | 104° |
| 2026-05-05 09:06 | 52.27475 | 20.54290 | 3825 ft | 169 kts | 104° |
| 2026-05-05 09:06 | 52.27221 | 20.56174 | 3633 ft | 169 kts | 105° |
| 2026-05-05 09:06 | 52.26966 | 20.58033 | 3465 ft | 167 kts | 104° |
| 2026-05-05 09:07 | 52.26718 | 20.59891 | 3293 ft | 166 kts | 104° |
| 2026-05-05 09:07 | 52.26472 | 20.61732 | 3123 ft | 166 kts | 104° |
| 2026-05-05 09:07 | 52.26224 | 20.63594 | 2988 ft | 170 kts | 103° |
| 2026-05-05 09:07 | 52.25986 | 20.65415 | 2979 ft | 162 kts | 102° |
| 2026-05-05 09:08 | 52.25993 | 20.67250 | 2985 ft | 163 kts | 85° |
| 2026-05-05 09:08 | 52.26082 | 20.69114 | 2986 ft | 167 kts | 87° |
| 2026-05-05 09:08 | 52.26157 | 20.71012 | 2961 ft | 168 kts | 89° |
| 2026-05-05 09:08 | 52.26229 | 20.72928 | 2920 ft | 171 kts | 88° |
| 2026-05-05 09:09 | 52.26316 | 20.74891 | 2691 ft | 172 kts | 88° |
| 2026-05-05 09:09 | 52.26375 | 20.76810 | 2444 ft | 166 kts | 88° |
| 2026-05-05 09:09 | 52.26448 | 20.78588 | 2232 ft | 155 kts | 87° |
| 2026-05-05 09:09 | 52.26641 | 20.80284 | 1995 ft | 147 kts | 74° |
| 2026-05-05 09:10 | 52.26967 | 20.81856 | 1665 ft | 144 kts | 72° |
| 2026-05-05 09:10 | 52.27319 | 20.83254 | 1474 ft | 124 kts | 69° |
| 2026-05-05 09:10 | 52.27602 | 20.84613 | 1277 ft | 127 kts | 79° |
| 2026-05-05 09:10 | 52.27556 | 20.85891 | 1081 ft | 103 kts | 100° |
| 2026-05-05 09:11 | 52.27415 | 20.86995 | 908 ft | 88 kts | 103° |
| 2026-05-05 09:11 | 52.27306 | 20.87896 | 712 ft | 80 kts | 103° |
| 2026-05-05 09:11 | 52.27191 | 20.88737 | 572 ft | 73 kts | 104° |
| 2026-05-05 09:11 | 52.27086 | 20.89507 | 432 ft | 65 kts | 101° |
| 2026-05-05 09:12 | 52.26992 | 20.90168 | 355 ft | 53 kts | 102° |
| 2026-05-05 09:12 | 52.26929 | 20.90571 | 353 ft | 18 kts | 158° |
| 2026-05-05 09:12 | 52.26840 | 20.90571 | 356 ft | 18 kts | 156° |
| 2026-05-05 09:12 | 52.26721 | 20.90669 | 351 ft | 24 kts | 151° |
| 2026-05-05 09:13 | 52.26636 | 20.90683 | 351 ft | 14 kts | 283° |
| 2026-05-05 09:13 | 52.26667 | 20.90435 | 356 ft | 29 kts | 282° |
| 2026-05-05 09:13 | 52.26706 | 20.90158 | 351 ft | 20 kts | 288° |
| 2026-05-05 09:13 | 52.26735 | 20.89961 | 351 ft | 18 kts | 284° |
| 2026-05-05 09:14 | 52.26755 | 20.89806 | 353 ft | 10 kts | 282° |
| 2026-05-05 09:14 | 52.26746 | 20.89742 | 354 ft | 4 kts | 256° |
| 2026-05-05 09:14 | 52.26747 | 20.89727 | 355 ft | 0 kts | 336° |